sensor_id;sensor_type;location;lat;lon;timestamp;P1;durP1;ratioP1;P2;durP2;ratioP2
18364;SDS011;9309;52.126;11.616;2023-08-08T00:02:13;3.60;;;1.80;;
18364;SDS011;9309;52.126;11.616;2023-08-08T00:04:40;4.50;;;1.60;;
18364;SDS011;9309;52.126;11.616;2023-08-08T00:07:07;2.00;;;1.90;;
18364;SDS011;9309;52.126;11.616;2023-08-08T00:09:34;1.43;;;1.43;;
18364;SDS011;9309;52.126;11.616;2023-08-08T00:12:00;2.13;;;1.73;;
18364;SDS011;9309;52.126;11.616;2023-08-08T00:14:27;2.23;;;1.70;;
18364;SDS011;9309;52.126;11.616;2023-08-08T00:16:55;4.77;;;1.47;;
18364;SDS011;9309;52.126;11.616;2023-08-08T00:19:22;2.10;;;1.53;;
18364;SDS011;9309;52.126;11.616;2023-08-08T00:21:49;1.63;;;1.60;;
18364;SDS011;9309;52.126;11.616;2023-08-08T00:24:15;3.77;;;2.30;;
18364;SDS011;9309;52.126;11.616;2023-08-08T00:26:42;2.73;;;1.83;;
18364;SDS011;9309;52.126;11.616;2023-08-08T00:29:09;3.07;;;1.77;;
18364;SDS011;9309;52.126;11.616;2023-08-08T00:31:36;5.70;;;2.07;;
18364;SDS011;9309;52.126;11.616;2023-08-08T00:34:04;1.90;;;1.83;;
18364;SDS011;9309;52.126;11.616;2023-08-08T00:36:30;1.93;;;1.83;;
18364;SDS011;9309;52.126;11.616;2023-08-08T00:38:57;1.67;;;1.57;;
18364;SDS011;9309;52.126;11.616;2023-08-08T00:41:25;2.33;;;2.23;;
18364;SDS011;9309;52.126;11.616;2023-08-08T00:43:52;4.37;;;1.60;;
18364;SDS011;9309;52.126;11.616;2023-08-08T00:46:18;3.60;;;1.60;;
18364;SDS011;9309;52.126;11.616;2023-08-08T00:48:49;3.03;;;1.57;;
18364;SDS011;9309;52.126;11.616;2023-08-08T00:51:17;2.20;;;2.10;;
18364;SDS011;9309;52.126;11.616;2023-08-08T00:53:45;1.90;;;1.90;;
18364;SDS011;9309;52.126;11.616;2023-08-08T00:56:13;2.37;;;1.93;;
18364;SDS011;9309;52.126;11.616;2023-08-08T00:58:42;1.80;;;1.80;;
18364;SDS011;9309;52.126;11.616;2023-08-08T01:01:10;3.17;;;1.80;;
18364;SDS011;9309;52.126;11.616;2023-08-08T01:03:37;1.80;;;1.70;;
18364;SDS011;9309;52.126;11.616;2023-08-08T01:06:05;4.50;;;1.90;;
18364;SDS011;9309;52.126;11.616;2023-08-08T01:08:42;2.40;;;2.00;;
18364;SDS011;9309;52.126;11.616;2023-08-08T01:11:13;5.57;;;1.67;;
18364;SDS011;9309;52.126;11.616;2023-08-08T01:13:41;4.77;;;1.73;;
18364;SDS011;9309;52.126;11.616;2023-08-08T01:16:08;2.93;;;2.40;;
18364;SDS011;9309;52.126;11.616;2023-08-08T01:18:36;3.73;;;1.87;;
18364;SDS011;9309;52.126;11.616;2023-08-08T01:21:04;1.70;;;1.60;;
18364;SDS011;9309;52.126;11.616;2023-08-08T01:23:33;1.90;;;1.80;;
18364;SDS011;9309;52.126;11.616;2023-08-08T01:26:10;4.33;;;2.13;;
18364;SDS011;9309;52.126;11.616;2023-08-08T01:28:37;1.90;;;1.80;;
18364;SDS011;9309;52.126;11.616;2023-08-08T01:31:04;1.83;;;1.73;;
18364;SDS011;9309;52.126;11.616;2023-08-08T01:33:33;2.63;;;1.90;;
18364;SDS011;9309;52.126;11.616;2023-08-08T01:36:00;2.13;;;1.93;;
18364;SDS011;9309;52.126;11.616;2023-08-08T01:38:34;1.73;;;1.67;;
18364;SDS011;9309;52.126;11.616;2023-08-08T01:41:05;2.93;;;1.80;;
18364;SDS011;9309;52.126;11.616;2023-08-08T01:43:34;1.80;;;1.80;;
18364;SDS011;9309;52.126;11.616;2023-08-08T01:46:03;1.97;;;1.83;;
18364;SDS011;9309;52.126;11.616;2023-08-08T01:48:30;9.33;;;2.10;;
18364;SDS011;9309;52.126;11.616;2023-08-08T01:50:57;2.63;;;2.50;;
18364;SDS011;9309;52.126;11.616;2023-08-08T01:53:24;2.00;;;1.90;;
18364;SDS011;9309;52.126;11.616;2023-08-08T01:55:52;2.20;;;2.00;;
18364;SDS011;9309;52.126;11.616;2023-08-08T01:58:18;1.93;;;1.87;;
18364;SDS011;9309;52.126;11.616;2023-08-08T02:00:47;1.83;;;1.83;;
18364;SDS011;9309;52.126;11.616;2023-08-08T02:03:13;4.20;;;2.60;;
18364;SDS011;9309;52.126;11.616;2023-08-08T02:05:41;2.27;;;2.17;;
18364;SDS011;9309;52.126;11.616;2023-08-08T02:08:08;5.83;;;2.23;;
18364;SDS011;9309;52.126;11.616;2023-08-08T02:10:35;2.00;;;1.90;;
18364;SDS011;9309;52.126;11.616;2023-08-08T02:13:02;2.10;;;2.10;;
18364;SDS011;9309;52.126;11.616;2023-08-08T02:15:29;3.70;;;2.10;;
18364;SDS011;9309;52.126;11.616;2023-08-08T02:17:58;2.70;;;2.47;;
18364;SDS011;9309;52.126;11.616;2023-08-08T02:20:25;3.03;;;2.20;;
18364;SDS011;9309;52.126;11.616;2023-08-08T02:22:52;2.10;;;2.00;;
18364;SDS011;9309;52.126;11.616;2023-08-08T02:25:19;2.73;;;2.33;;
18364;SDS011;9309;52.126;11.616;2023-08-08T02:27:46;1.97;;;1.90;;
18364;SDS011;9309;52.126;11.616;2023-08-08T02:30:13;2.97;;;1.80;;
18364;SDS011;9309;52.126;11.616;2023-08-08T02:32:40;4.40;;;2.13;;
18364;SDS011;9309;52.126;11.616;2023-08-08T02:35:08;2.17;;;2.07;;
18364;SDS011;9309;52.126;11.616;2023-08-08T02:37:36;7.83;;;1.97;;
18364;SDS011;9309;52.126;11.616;2023-08-08T02:40:03;1.90;;;1.80;;
18364;SDS011;9309;52.126;11.616;2023-08-08T02:42:31;1.97;;;1.97;;
18364;SDS011;9309;52.126;11.616;2023-08-08T02:44:57;1.97;;;1.87;;
18364;SDS011;9309;52.126;11.616;2023-08-08T02:47:24;2.20;;;2.00;;
18364;SDS011;9309;52.126;11.616;2023-08-08T02:49:51;2.10;;;2.10;;
18364;SDS011;9309;52.126;11.616;2023-08-08T02:52:19;2.10;;;2.00;;
18364;SDS011;9309;52.126;11.616;2023-08-08T02:54:46;2.17;;;1.90;;
18364;SDS011;9309;52.126;11.616;2023-08-08T02:57:12;2.93;;;2.63;;
18364;SDS011;9309;52.126;11.616;2023-08-08T02:59:40;2.30;;;2.10;;
18364;SDS011;9309;52.126;11.616;2023-08-08T03:02:07;2.30;;;2.10;;
18364;SDS011;9309;52.126;11.616;2023-08-08T03:04:36;2.20;;;2.10;;
18364;SDS011;9309;52.126;11.616;2023-08-08T03:07:05;1.90;;;1.80;;
18364;SDS011;9309;52.126;11.616;2023-08-08T03:09:35;2.47;;;2.20;;
18364;SDS011;9309;52.126;11.616;2023-08-08T03:12:02;4.20;;;2.17;;
18364;SDS011;9309;52.126;11.616;2023-08-08T03:14:31;2.73;;;2.57;;
18364;SDS011;9309;52.126;11.616;2023-08-08T03:17:00;2.20;;;2.10;;
18364;SDS011;9309;52.126;11.616;2023-08-08T03:19:27;2.30;;;2.20;;
18364;SDS011;9309;52.126;11.616;2023-08-08T03:21:56;2.10;;;2.00;;
18364;SDS011;9309;52.126;11.616;2023-08-08T03:24:22;1.90;;;1.80;;
18364;SDS011;9309;52.126;11.616;2023-08-08T03:26:50;4.13;;;2.23;;
18364;SDS011;9309;52.126;11.616;2023-08-08T03:29:17;1.80;;;1.80;;
18364;SDS011;9309;52.126;11.616;2023-08-08T03:31:47;2.47;;;2.13;;
18364;SDS011;9309;52.126;11.616;2023-08-08T03:34:14;3.23;;;2.10;;
18364;SDS011;9309;52.126;11.616;2023-08-08T03:36:41;1.90;;;1.87;;
18364;SDS011;9309;52.126;11.616;2023-08-08T03:39:09;3.03;;;1.90;;
18364;SDS011;9309;52.126;11.616;2023-08-08T03:41:35;2.20;;;2.10;;
18364;SDS011;9309;52.126;11.616;2023-08-08T03:44:04;3.37;;;2.20;;
18364;SDS011;9309;52.126;11.616;2023-08-08T03:46:31;2.00;;;1.83;;
18364;SDS011;9309;52.126;11.616;2023-08-08T04:58:32;2.70;;;2.50;;
18364;SDS011;9309;52.126;11.616;2023-08-08T05:00:59;3.73;;;2.13;;
18364;SDS011;9309;52.126;11.616;2023-08-08T05:03:26;2.67;;;2.53;;
18364;SDS011;9309;52.126;11.616;2023-08-08T05:05:52;4.13;;;2.10;;
18364;SDS011;9309;52.126;11.616;2023-08-08T05:08:19;2.20;;;2.00;;
18364;SDS011;9309;52.126;11.616;2023-08-08T05:10:46;2.47;;;2.33;;
18364;SDS011;9309;52.126;11.616;2023-08-08T05:13:14;2.50;;;2.30;;
18364;SDS011;9309;52.126;11.616;2023-08-08T05:15:41;3.27;;;2.37;;
18364;SDS011;9309;52.126;11.616;2023-08-08T05:18:08;3.03;;;2.30;;
18364;SDS011;9309;52.126;11.616;2023-08-08T05:20:34;3.13;;;2.50;;
18364;SDS011;9309;52.126;11.616;2023-08-08T05:23:01;2.33;;;2.10;;
18364;SDS011;9309;52.126;11.616;2023-08-08T05:25:28;4.30;;;2.40;;
18364;SDS011;9309;52.126;11.616;2023-08-08T05:27:55;3.07;;;2.20;;
18364;SDS011;9309;52.126;11.616;2023-08-08T05:30:23;2.90;;;2.07;;
18364;SDS011;9309;52.126;11.616;2023-08-08T05:32:49;4.63;;;2.53;;
18364;SDS011;9309;52.126;11.616;2023-08-08T05:35:16;1.93;;;1.80;;
18364;SDS011;9309;52.126;11.616;2023-08-08T10:51:44;2.37;;;1.97;;
18364;SDS011;9309;52.126;11.616;2023-08-08T10:54:13;1.97;;;1.70;;
18364;SDS011;9309;52.126;11.616;2023-08-08T10:56:48;1.73;;;1.73;;
18364;SDS011;9309;52.126;11.616;2023-08-08T10:59:17;1.93;;;1.83;;
18364;SDS011;9309;52.126;11.616;2023-08-08T11:01:44;2.20;;;1.90;;
18364;SDS011;9309;52.126;11.616;2023-08-08T11:04:13;2.87;;;1.90;;
18364;SDS011;9309;52.126;11.616;2023-08-08T11:06:40;3.17;;;2.07;;
18364;SDS011;9309;52.126;11.616;2023-08-08T11:09:07;3.43;;;1.80;;
18364;SDS011;9309;52.126;11.616;2023-08-08T11:11:38;2.13;;;2.03;;
18364;SDS011;9309;52.126;11.616;2023-08-08T11:14:11;1.93;;;1.93;;
18364;SDS011;9309;52.126;11.616;2023-08-08T11:16:39;5.00;;;2.00;;
18364;SDS011;9309;52.126;11.616;2023-08-08T11:19:06;3.47;;;2.20;;
18364;SDS011;9309;52.126;11.616;2023-08-08T11:21:34;2.13;;;1.87;;
18364;SDS011;9309;52.126;11.616;2023-08-08T11:24:02;2.40;;;2.10;;
18364;SDS011;9309;52.126;11.616;2023-08-08T11:26:29;3.07;;;1.80;;
18364;SDS011;9309;52.126;11.616;2023-08-08T11:28:57;2.13;;;2.03;;
18364;SDS011;9309;52.126;11.616;2023-08-08T11:31:26;3.23;;;2.13;;
18364;SDS011;9309;52.126;11.616;2023-08-08T11:33:53;2.23;;;2.10;;
18364;SDS011;9309;52.126;11.616;2023-08-08T11:36:20;2.30;;;2.20;;
18364;SDS011;9309;52.126;11.616;2023-08-08T11:38:49;4.20;;;1.87;;
18364;SDS011;9309;52.126;11.616;2023-08-08T11:41:16;2.20;;;1.77;;
18364;SDS011;9309;52.126;11.616;2023-08-08T11:43:46;1.97;;;1.87;;
18364;SDS011;9309;52.126;11.616;2023-08-08T11:46:13;3.83;;;2.43;;
18364;SDS011;9309;52.126;11.616;2023-08-08T11:48:42;5.93;;;1.97;;
18364;SDS011;9309;52.126;11.616;2023-08-08T11:51:13;1.97;;;1.97;;
18364;SDS011;9309;52.126;11.616;2023-08-08T11:53:47;3.73;;;2.50;;
18364;SDS011;9309;52.126;11.616;2023-08-08T11:56:15;1.93;;;1.83;;
18364;SDS011;9309;52.126;11.616;2023-08-08T11:58:42;4.50;;;2.50;;
18364;SDS011;9309;52.126;11.616;2023-08-08T12:01:09;2.30;;;2.20;;
18364;SDS011;9309;52.126;11.616;2023-08-08T12:03:39;1.83;;;1.77;;
18364;SDS011;9309;52.126;11.616;2023-08-08T12:06:12;2.00;;;1.90;;
18364;SDS011;9309;52.126;11.616;2023-08-08T12:08:40;1.67;;;1.58;;
18364;SDS011;9309;52.126;11.616;2023-08-08T12:11:08;1.30;;;1.30;;
18364;SDS011;9309;52.126;11.616;2023-08-08T12:13:36;3.55;;;1.25;;
18364;SDS011;9309;52.126;11.616;2023-08-08T12:16:05;1.70;;;1.60;;
18364;SDS011;9309;52.126;11.616;2023-08-08T12:18:32;1.73;;;1.70;;
18364;SDS011;9309;52.126;11.616;2023-08-08T12:20:58;1.40;;;1.40;;
18364;SDS011;9309;52.126;11.616;2023-08-08T12:23:27;1.60;;;1.60;;
18364;SDS011;9309;52.126;11.616;2023-08-08T12:25:54;4.10;;;1.48;;
18364;SDS011;9309;52.126;11.616;2023-08-08T12:28:21;3.60;;;1.92;;
18364;SDS011;9309;52.126;11.616;2023-08-08T12:30:48;2.70;;;1.70;;
18364;SDS011;9309;52.126;11.616;2023-08-08T12:33:14;3.40;;;3.10;;
18364;SDS011;9309;52.126;11.616;2023-08-08T12:35:41;3.03;;;1.80;;
18364;SDS011;9309;52.126;11.616;2023-08-08T12:38:08;1.95;;;1.73;;
18364;SDS011;9309;52.126;11.616;2023-08-08T12:40:37;2.00;;;1.90;;
18364;SDS011;9309;52.126;11.616;2023-08-08T12:43:03;2.33;;;1.90;;
18364;SDS011;9309;52.126;11.616;2023-08-08T12:45:30;2.00;;;1.90;;
18364;SDS011;9309;52.126;11.616;2023-08-08T12:47:57;5.75;;;1.80;;
18364;SDS011;9309;52.126;11.616;2023-08-08T12:50:24;1.90;;;1.80;;
18364;SDS011;9309;52.126;11.616;2023-08-08T12:52:51;3.28;;;1.90;;
18364;SDS011;9309;52.126;11.616;2023-08-08T12:55:18;1.40;;;1.40;;
18364;SDS011;9309;52.126;11.616;2023-08-08T12:57:46;1.63;;;1.50;;
18364;SDS011;9309;52.126;11.616;2023-08-08T13:00:13;1.63;;;1.52;;
18364;SDS011;9309;52.126;11.616;2023-08-08T13:02:41;1.40;;;1.30;;
18364;SDS011;9309;52.126;11.616;2023-08-08T13:05:09;1.60;;;1.50;;
18364;SDS011;9309;52.126;11.616;2023-08-08T13:07:36;1.92;;;1.50;;
18364;SDS011;9309;52.126;11.616;2023-08-08T13:10:03;1.75;;;1.52;;
18364;SDS011;9309;52.126;11.616;2023-08-08T13:12:30;3.17;;;1.92;;
18364;SDS011;9309;52.126;11.616;2023-08-08T13:14:58;1.20;;;1.20;;
18364;SDS011;9309;52.126;11.616;2023-08-08T13:17:25;1.60;;;1.40;;
18364;SDS011;9309;52.126;11.616;2023-08-08T13:19:52;1.33;;;1.08;;
18364;SDS011;9309;52.126;11.616;2023-08-08T13:22:18;2.17;;;1.33;;
18364;SDS011;9309;52.126;11.616;2023-08-08T13:24:45;1.98;;;1.13;;
18364;SDS011;9309;52.126;11.616;2023-08-08T13:27:12;8.60;;;1.13;;
18364;SDS011;9309;52.126;11.616;2023-08-08T13:29:38;1.10;;;1.10;;
18364;SDS011;9309;52.126;11.616;2023-08-08T13:32:07;4.82;;;1.92;;
18364;SDS011;9309;52.126;11.616;2023-08-08T13:34:33;0.93;;;0.93;;
18364;SDS011;9309;52.126;11.616;2023-08-08T13:37:00;1.40;;;1.30;;
18364;SDS011;9309;52.126;11.616;2023-08-08T13:39:28;1.00;;;1.00;;
18364;SDS011;9309;52.126;11.616;2023-08-08T13:41:54;2.80;;;0.98;;
18364;SDS011;9309;52.126;11.616;2023-08-08T13:44:21;0.85;;;0.85;;
18364;SDS011;9309;52.126;11.616;2023-08-08T13:46:48;0.88;;;0.88;;
18364;SDS011;9309;52.126;11.616;2023-08-08T13:49:17;4.68;;;1.65;;
18364;SDS011;9309;52.126;11.616;2023-08-08T13:51:44;0.95;;;0.95;;
18364;SDS011;9309;52.126;11.616;2023-08-08T13:54:11;1.73;;;1.13;;
18364;SDS011;9309;52.126;11.616;2023-08-08T13:56:38;1.17;;;1.17;;
18364;SDS011;9309;52.126;11.616;2023-08-08T13:59:04;1.10;;;1.10;;
18364;SDS011;9309;52.126;11.616;2023-08-08T14:01:31;1.00;;;1.00;;
18364;SDS011;9309;52.126;11.616;2023-08-08T14:03:58;1.13;;;1.13;;
18364;SDS011;9309;52.126;11.616;2023-08-08T14:06:26;1.27;;;1.27;;
18364;SDS011;9309;52.126;11.616;2023-08-08T14:08:53;2.50;;;1.38;;
18364;SDS011;9309;52.126;11.616;2023-08-08T14:11:20;4.72;;;1.15;;
18364;SDS011;9309;52.126;11.616;2023-08-08T14:13:47;1.23;;;1.23;;
18364;SDS011;9309;52.126;11.616;2023-08-08T14:16:14;2.10;;;1.20;;
18364;SDS011;9309;52.126;11.616;2023-08-08T14:18:41;1.10;;;1.10;;
18364;SDS011;9309;52.126;11.616;2023-08-08T14:21:07;1.00;;;1.00;;
18364;SDS011;9309;52.126;11.616;2023-08-08T14:23:35;2.15;;;1.35;;
18364;SDS011;9309;52.126;11.616;2023-08-08T14:26:03;1.95;;;1.10;;
18364;SDS011;9309;52.126;11.616;2023-08-08T14:28:31;1.20;;;1.10;;
18364;SDS011;9309;52.126;11.616;2023-08-08T14:30:57;1.23;;;1.23;;
18364;SDS011;9309;52.126;11.616;2023-08-08T14:33:24;1.30;;;1.17;;
18364;SDS011;9309;52.126;11.616;2023-08-08T14:35:54;1.63;;;1.52;;
18364;SDS011;9309;52.126;11.616;2023-08-08T14:38:23;1.48;;;1.38;;
18364;SDS011;9309;52.126;11.616;2023-08-08T14:40:51;1.95;;;1.45;;
18364;SDS011;9309;52.126;11.616;2023-08-08T14:43:18;1.30;;;1.20;;
18364;SDS011;9309;52.126;11.616;2023-08-08T14:45:45;1.10;;;1.10;;
18364;SDS011;9309;52.126;11.616;2023-08-08T14:48:12;2.67;;;1.23;;
18364;SDS011;9309;52.126;11.616;2023-08-08T14:50:39;1.42;;;1.33;;
18364;SDS011;9309;52.126;11.616;2023-08-08T14:53:05;1.10;;;1.10;;
18364;SDS011;9309;52.126;11.616;2023-08-08T14:55:32;1.50;;;1.10;;
18364;SDS011;9309;52.126;11.616;2023-08-08T14:58:00;0.90;;;0.90;;
18364;SDS011;9309;52.126;11.616;2023-08-08T15:00:27;1.90;;;1.07;;
18364;SDS011;9309;52.126;11.616;2023-08-08T15:05:21;3.20;;;1.20;;
18364;SDS011;9309;52.126;11.616;2023-08-08T15:07:48;0.97;;;0.97;;
18364;SDS011;9309;52.126;11.616;2023-08-08T15:10:15;4.07;;;1.17;;
18364;SDS011;9309;52.126;11.616;2023-08-08T15:12:42;1.47;;;1.47;;
18364;SDS011;9309;52.126;11.616;2023-08-08T15:15:15;1.57;;;1.20;;
18364;SDS011;9309;52.126;11.616;2023-08-08T15:17:59;2.73;;;1.67;;
18364;SDS011;9309;52.126;11.616;2023-08-08T15:20:33;1.10;;;1.10;;
18364;SDS011;9309;52.126;11.616;2023-08-08T15:23:01;1.40;;;1.30;;
18364;SDS011;9309;52.126;11.616;2023-08-08T15:25:32;1.73;;;1.50;;
18364;SDS011;9309;52.126;11.616;2023-08-08T15:28:03;3.40;;;1.53;;
18364;SDS011;9309;52.126;11.616;2023-08-08T15:30:32;1.00;;;1.00;;
18364;SDS011;9309;52.126;11.616;2023-08-08T15:33:00;1.20;;;1.10;;
18364;SDS011;9309;52.126;11.616;2023-08-08T15:35:28;0.90;;;0.90;;
18364;SDS011;9309;52.126;11.616;2023-08-08T15:37:55;1.60;;;0.90;;
18364;SDS011;9309;52.126;11.616;2023-08-08T15:40:24;1.00;;;1.00;;
18364;SDS011;9309;52.126;11.616;2023-08-08T15:42:54;2.83;;;1.40;;
18364;SDS011;9309;52.126;11.616;2023-08-08T15:45:24;0.90;;;0.90;;
18364;SDS011;9309;52.126;11.616;2023-08-08T15:48:10;0.90;;;0.90;;
18364;SDS011;9309;52.126;11.616;2023-08-08T15:50:43;1.27;;;1.27;;
18364;SDS011;9309;52.126;11.616;2023-08-08T15:53:20;2.38;;;1.30;;
18364;SDS011;9309;52.126;11.616;2023-08-08T15:56:31;1.20;;;1.20;;
18364;SDS011;9309;52.126;11.616;2023-08-08T15:58:59;0.90;;;0.90;;
18364;SDS011;9309;52.126;11.616;2023-08-08T16:01:27;1.27;;;1.10;;
18364;SDS011;9309;52.126;11.616;2023-08-08T16:03:55;0.90;;;0.90;;
18364;SDS011;9309;52.126;11.616;2023-08-08T16:06:22;1.73;;;1.37;;
18364;SDS011;9309;52.126;11.616;2023-08-08T16:08:49;0.97;;;0.90;;
18364;SDS011;9309;52.126;11.616;2023-08-08T16:11:16;0.80;;;0.80;;
18364;SDS011;9309;52.126;11.616;2023-08-08T16:13:42;1.27;;;1.17;;
18364;SDS011;9309;52.126;11.616;2023-08-08T16:16:27;2.03;;;1.03;;
18364;SDS011;9309;52.126;11.616;2023-08-08T16:18:55;1.07;;;1.07;;
18364;SDS011;9309;52.126;11.616;2023-08-08T16:21:22;3.30;;;1.23;;
18364;SDS011;9309;52.126;11.616;2023-08-08T16:23:49;2.20;;;1.00;;
18364;SDS011;9309;52.126;11.616;2023-08-08T16:26:16;1.00;;;1.00;;
18364;SDS011;9309;52.126;11.616;2023-08-08T16:28:42;1.47;;;1.33;;
18364;SDS011;9309;52.126;11.616;2023-08-08T16:31:09;1.00;;;1.00;;
18364;SDS011;9309;52.126;11.616;2023-08-08T16:33:36;1.00;;;1.00;;
18364;SDS011;9309;52.126;11.616;2023-08-08T16:36:04;4.90;;;1.27;;
18364;SDS011;9309;52.126;11.616;2023-08-08T16:38:32;1.13;;;1.10;;
18364;SDS011;9309;52.126;11.616;2023-08-08T16:40:59;0.90;;;0.90;;
18364;SDS011;9309;52.126;11.616;2023-08-08T16:43:26;1.00;;;1.00;;
18364;SDS011;9309;52.126;11.616;2023-08-08T16:45:56;3.23;;;1.13;;
18364;SDS011;9309;52.126;11.616;2023-08-08T16:48:23;1.47;;;0.97;;
18364;SDS011;9309;52.126;11.616;2023-08-08T16:50:50;0.90;;;0.90;;
18364;SDS011;9309;52.126;11.616;2023-08-08T16:53:18;0.90;;;0.90;;
18364;SDS011;9309;52.126;11.616;2023-08-08T16:55:45;1.50;;;1.40;;
18364;SDS011;9309;52.126;11.616;2023-08-08T16:58:11;1.67;;;1.57;;
18364;SDS011;9309;52.126;11.616;2023-08-08T17:00:38;0.87;;;0.87;;
18364;SDS011;9309;52.126;11.616;2023-08-08T17:03:05;1.33;;;1.20;;
18364;SDS011;9309;52.126;11.616;2023-08-08T17:05:32;0.77;;;0.77;;
18364;SDS011;9309;52.126;11.616;2023-08-08T17:07:59;1.10;;;1.10;;
18364;SDS011;9309;52.126;11.616;2023-08-08T17:10:27;0.70;;;0.70;;
18364;SDS011;9309;52.126;11.616;2023-08-08T17:12:54;0.90;;;0.90;;
18364;SDS011;9309;52.126;11.616;2023-08-08T17:15:21;1.00;;;1.00;;
18364;SDS011;9309;52.126;11.616;2023-08-08T17:17:47;1.00;;;1.00;;
18364;SDS011;9309;52.126;11.616;2023-08-08T17:20:14;2.57;;;0.90;;
18364;SDS011;9309;52.126;11.616;2023-08-08T17:22:41;0.90;;;0.90;;
18364;SDS011;9309;52.126;11.616;2023-08-08T17:25:08;0.83;;;0.83;;
18364;SDS011;9309;52.126;11.616;2023-08-08T17:27:36;3.27;;;0.90;;
18364;SDS011;9309;52.126;11.616;2023-08-08T17:30:03;1.00;;;1.00;;
18364;SDS011;9309;52.126;11.616;2023-08-08T17:32:33;1.00;;;1.00;;
18364;SDS011;9309;52.126;11.616;2023-08-08T17:35:00;1.00;;;0.90;;
18364;SDS011;9309;52.126;11.616;2023-08-08T17:37:27;0.87;;;0.87;;
18364;SDS011;9309;52.126;11.616;2023-08-08T17:39:54;0.70;;;0.70;;
18364;SDS011;9309;52.126;11.616;2023-08-08T17:42:21;1.00;;;1.00;;
18364;SDS011;9309;52.126;11.616;2023-08-08T17:44:49;2.03;;;1.33;;
18364;SDS011;9309;52.126;11.616;2023-08-08T17:47:16;0.87;;;0.87;;
18364;SDS011;9309;52.126;11.616;2023-08-08T17:49:43;0.97;;;0.97;;
18364;SDS011;9309;52.126;11.616;2023-08-08T17:52:09;0.73;;;0.73;;
18364;SDS011;9309;52.126;11.616;2023-08-08T17:54:36;0.80;;;0.80;;
18364;SDS011;9309;52.126;11.616;2023-08-08T17:57:03;1.00;;;1.00;;
18364;SDS011;9309;52.126;11.616;2023-08-08T17:59:30;0.90;;;0.90;;
18364;SDS011;9309;52.126;11.616;2023-08-08T18:01:58;3.97;;;0.90;;
18364;SDS011;9309;52.126;11.616;2023-08-08T18:04:24;1.00;;;1.00;;
18364;SDS011;9309;52.126;11.616;2023-08-08T18:06:51;1.07;;;1.03;;
18364;SDS011;9309;52.126;11.616;2023-08-08T18:09:18;0.90;;;0.90;;
18364;SDS011;9309;52.126;11.616;2023-08-08T18:11:46;9.97;;;1.17;;
18364;SDS011;9309;52.126;11.616;2023-08-08T18:14:13;1.00;;;1.00;;
18364;SDS011;9309;52.126;11.616;2023-08-08T18:16:41;0.93;;;0.93;;
18364;SDS011;9309;52.126;11.616;2023-08-08T18:19:09;1.00;;;1.00;;
18364;SDS011;9309;52.126;11.616;2023-08-08T18:21:36;1.00;;;1.00;;
18364;SDS011;9309;52.126;11.616;2023-08-08T18:24:03;1.10;;;1.10;;
18364;SDS011;9309;52.126;11.616;2023-08-08T18:26:30;1.90;;;1.00;;
18364;SDS011;9309;52.126;11.616;2023-08-08T18:28:57;1.07;;;1.07;;
18364;SDS011;9309;52.126;11.616;2023-08-08T18:31:24;1.30;;;1.20;;
18364;SDS011;9309;52.126;11.616;2023-08-08T18:33:56;3.03;;;1.00;;
18364;SDS011;9309;52.126;11.616;2023-08-08T18:36:24;2.20;;;1.20;;
18364;SDS011;9309;52.126;11.616;2023-08-08T18:38:51;1.10;;;1.10;;
18364;SDS011;9309;52.126;11.616;2023-08-08T18:41:18;2.73;;;1.23;;
18364;SDS011;9309;52.126;11.616;2023-08-08T18:43:45;0.90;;;0.90;;
18364;SDS011;9309;52.126;11.616;2023-08-08T18:46:12;1.17;;;1.17;;
18364;SDS011;9309;52.126;11.616;2023-08-08T18:48:39;1.10;;;1.10;;
18364;SDS011;9309;52.126;11.616;2023-08-08T18:51:06;1.30;;;1.17;;
18364;SDS011;9309;52.126;11.616;2023-08-08T18:53:34;1.27;;;1.17;;
18364;SDS011;9309;52.126;11.616;2023-08-08T18:56:02;1.03;;;1.03;;
18364;SDS011;9309;52.126;11.616;2023-08-08T18:58:29;1.70;;;1.60;;
18364;SDS011;9309;52.126;11.616;2023-08-08T19:00:55;1.33;;;1.30;;
18364;SDS011;9309;52.126;11.616;2023-08-08T19:03:22;1.43;;;1.33;;
18364;SDS011;9309;52.126;11.616;2023-08-08T19:05:49;1.00;;;1.00;;
18364;SDS011;9309;52.126;11.616;2023-08-08T19:12:05;1.70;;;1.10;;
18364;SDS011;9309;52.126;11.616;2023-08-08T19:14:32;1.37;;;1.27;;
18364;SDS011;9309;52.126;11.616;2023-08-08T19:16:58;1.30;;;1.30;;
18364;SDS011;9309;52.126;11.616;2023-08-08T19:19:25;1.30;;;1.30;;
18364;SDS011;9309;52.126;11.616;2023-08-08T19:21:52;1.20;;;1.20;;
18364;SDS011;9309;52.126;11.616;2023-08-08T19:24:19;1.30;;;1.30;;
18364;SDS011;9309;52.126;11.616;2023-08-08T19:26:45;1.20;;;1.20;;
18364;SDS011;9309;52.126;11.616;2023-08-08T19:29:13;1.90;;;1.17;;
18364;SDS011;9309;52.126;11.616;2023-08-08T19:31:40;1.07;;;1.03;;
18364;SDS011;9309;52.126;11.616;2023-08-08T19:34:07;1.50;;;1.50;;
18364;SDS011;9309;52.126;11.616;2023-08-08T19:36:34;1.73;;;1.60;;
18364;SDS011;9309;52.126;11.616;2023-08-08T19:39:01;2.27;;;1.67;;
18364;SDS011;9309;52.126;11.616;2023-08-08T19:41:28;1.47;;;1.37;;
18364;SDS011;9309;52.126;11.616;2023-08-08T19:43:54;1.67;;;1.57;;
18364;SDS011;9309;52.126;11.616;2023-08-08T19:46:22;1.43;;;1.43;;
18364;SDS011;9309;52.126;11.616;2023-08-08T19:48:49;1.77;;;1.30;;
18364;SDS011;9309;52.126;11.616;2023-08-08T19:51:16;1.47;;;1.47;;
18364;SDS011;9309;52.126;11.616;2023-08-08T19:53:43;1.70;;;1.60;;
18364;SDS011;9309;52.126;11.616;2023-08-08T19:56:10;1.60;;;1.50;;
18364;SDS011;9309;52.126;11.616;2023-08-08T19:58:37;1.27;;;1.23;;
18364;SDS011;9309;52.126;11.616;2023-08-08T20:01:04;2.07;;;1.57;;
18364;SDS011;9309;52.126;11.616;2023-08-08T20:03:32;2.87;;;1.60;;
18364;SDS011;9309;52.126;11.616;2023-08-08T20:05:59;1.93;;;1.40;;
18364;SDS011;9309;52.126;11.616;2023-08-08T20:08:26;1.40;;;1.40;;
18364;SDS011;9309;52.126;11.616;2023-08-08T20:10:52;2.57;;;1.50;;
18364;SDS011;9309;52.126;11.616;2023-08-08T20:13:19;1.50;;;1.40;;
18364;SDS011;9309;52.126;11.616;2023-08-08T20:15:46;1.40;;;1.40;;
18364;SDS011;9309;52.126;11.616;2023-08-08T20:18:12;1.80;;;1.70;;
18364;SDS011;9309;52.126;11.616;2023-08-08T20:20:40;1.63;;;1.63;;
18364;SDS011;9309;52.126;11.616;2023-08-08T20:23:07;1.23;;;1.23;;
18364;SDS011;9309;52.126;11.616;2023-08-08T20:25:34;1.40;;;1.40;;
18364;SDS011;9309;52.126;11.616;2023-08-08T20:28:03;1.57;;;1.57;;
18364;SDS011;9309;52.126;11.616;2023-08-08T20:30:29;1.60;;;1.50;;
18364;SDS011;9309;52.126;11.616;2023-08-08T20:32:56;1.50;;;1.50;;
18364;SDS011;9309;52.126;11.616;2023-08-08T20:35:23;1.50;;;1.50;;
18364;SDS011;9309;52.126;11.616;2023-08-08T20:37:51;1.37;;;1.37;;
18364;SDS011;9309;52.126;11.616;2023-08-08T20:40:18;3.13;;;2.13;;
18364;SDS011;9309;52.126;11.616;2023-08-08T20:42:45;1.57;;;1.50;;
18364;SDS011;9309;52.126;11.616;2023-08-08T20:45:12;1.67;;;1.60;;
18364;SDS011;9309;52.126;11.616;2023-08-08T20:47:38;1.40;;;1.30;;
18364;SDS011;9309;52.126;11.616;2023-08-08T20:50:05;1.50;;;1.50;;
18364;SDS011;9309;52.126;11.616;2023-08-08T20:52:33;2.83;;;1.70;;
18364;SDS011;9309;52.126;11.616;2023-08-08T20:55:02;1.30;;;1.30;;
18364;SDS011;9309;52.126;11.616;2023-08-08T20:57:29;1.23;;;1.23;;
18364;SDS011;9309;52.126;11.616;2023-08-08T20:59:57;1.40;;;1.30;;
18364;SDS011;9309;52.126;11.616;2023-08-08T21:02:24;1.20;;;1.20;;
18364;SDS011;9309;52.126;11.616;2023-08-08T21:04:51;1.10;;;1.10;;
18364;SDS011;9309;52.126;11.616;2023-08-08T21:07:17;1.40;;;1.40;;
18364;SDS011;9309;52.126;11.616;2023-08-08T21:09:44;1.30;;;1.30;;
18364;SDS011;9309;52.126;11.616;2023-08-08T21:12:13;1.40;;;1.40;;
18364;SDS011;9309;52.126;11.616;2023-08-08T21:14:39;1.33;;;1.33;;
18364;SDS011;9309;52.126;11.616;2023-08-08T21:17:06;2.13;;;1.40;;
18364;SDS011;9309;52.126;11.616;2023-08-08T21:19:33;1.87;;;1.77;;
18364;SDS011;9309;52.126;11.616;2023-08-08T21:22:00;1.43;;;1.40;;